Time;durP1;ratioP1;P1;durP2;ratioP2;P2;SDS_P1;SDS_P2;PMS_P1;PMS_P2;Temp;Humidity;BMP_temperature;BMP_pressure;BME280_temperature;BME280_humidity;BME280_pressure;Samples;Min_cycle;Max_cycle;Signal;HPM_P1;HPM_P2
2023/01/10 00:00:19;;;;;;;20.60;3.50;;;;;;;;;;5055881;28;20032;-73
2023/01/10 00:02:45;;;;;;;23.23;2.97;;;;;;;;;;5068890;28;20027;-73
2023/01/10 00:05:11;;;;;;;27.02;3.13;;;;;;;;;;5077358;28;20452;-73
2023/01/10 00:07:37;;;;;;;28.13;4.53;;;;;;;;;;5043824;28;20029;-74
2023/01/10 00:10:03;;;;;;;25.15;4.40;;;;;;;;;;5065989;28;20032;-73
2023/01/10 00:15:14;;;;;;;25.65;3.13;;;;;;;;;;5064723;28;20101;-73
2023/01/10 00:17:40;;;;;;;26.20;3.00;;;;;;;;;;5045095;28;20064;-73
2023/01/10 00:20:06;;;;;;;39.75;5.55;;;;;;;;;;5064559;28;20071;-74
2023/01/10 00:22:32;;;;;;;23.58;4.35;;;;;;;;;;5065693;28;20059;-74
2023/01/10 00:24:58;;;;;;;19.83;3.03;;;;;;;;;;5063709;28;20481;-74
2023/01/10 00:27:24;;;;;;;23.55;4.70;;;;;;;;;;5065702;28;20036;-73
2023/01/10 00:29:51;;;;;;;20.25;3.30;;;;;;;;;;5050223;28;20451;-73
2023/01/10 00:32:17;;;;;;;25.75;3.83;;;;;;;;;;5049354;28;20862;-74
2023/01/10 00:34:43;;;;;;;33.92;5.30;;;;;;;;;;5052930;28;20401;-74
2023/01/10 00:37:09;;;;;;;26.83;3.75;;;;;;;;;;5058284;28;20017;-73
2023/01/10 00:39:35;;;;;;;20.65;2.30;;;;;;;;;;5041085;28;20021;-73
2023/01/10 00:44:46;;;;;;;23.20;3.40;;;;;;;;;;5043155;28;20291;-73
2023/01/10 00:47:13;;;;;;;22.20;3.58;;;;;;;;;;5051664;28;20908;-73
2023/01/10 00:49:39;;;;;;;24.80;3.17;;;;;;;;;;5040423;28;20049;-73
2023/01/10 00:52:05;;;;;;;28.33;4.47;;;;;;;;;;5053409;28;20036;-74
2023/01/10 00:54:31;;;;;;;19.85;2.58;;;;;;;;;;5049900;28;20508;-74
2023/01/10 00:56:57;;;;;;;18.67;2.85;;;;;;;;;;5044765;28;20053;-74
2023/01/10 00:59:24;;;;;;;17.77;2.80;;;;;;;;;;5049375;28;20064;-74
2023/01/10 01:01:50;;;;;;;24.95;2.88;;;;;;;;;;5050247;28;20068;-74
2023/01/10 01:04:17;;;;;;;29.23;3.05;;;;;;;;;;5049650;28;20021;-75
2023/01/10 01:06:46;;;;;;;34.63;5.45;;;;;;;;;;5048232;28;20033;-74
2023/01/10 01:09:13;;;;;;;32.58;4.72;;;;;;;;;;5051100;28;20482;-74
2023/01/10 01:11:39;;;;;;;35.03;4.78;;;;;;;;;;5043369;28;20182;-73
2023/01/10 01:14:05;;;;;;;27.83;3.63;;;;;;;;;;5048138;28;20029;-73
2023/01/10 01:16:31;;;;;;;30.48;4.57;;;;;;;;;;5049292;28;20036;-73
2023/01/10 01:18:57;;;;;;;27.17;3.83;;;;;;;;;;5048723;28;20034;-74
2023/01/10 01:21:27;;;;;;;23.67;3.70;;;;;;;;;;5037368;28;20124;-74
2023/01/10 01:23:55;;;;;;;25.08;3.83;;;;;;;;;;5046337;28;20025;-73
2023/01/10 01:26:21;;;;;;;15.63;3.30;;;;;;;;;;5045005;28;20052;-73
2023/01/10 01:28:47;;;;;;;22.10;2.58;;;;;;;;;;5053128;28;20123;-73
2023/01/10 01:31:13;;;;;;;26.40;3.67;;;;;;;;;;5074413;28;20552;-73
2023/01/10 01:33:39;;;;;;;27.70;3.85;;;;;;;;;;5058548;28;20031;-73
2023/01/10 01:36:10;;;;;;;30.60;4.65;;;;;;;;;;5065041;28;20385;-72
2023/01/10 01:38:36;;;;;;;25.00;3.17;;;;;;;;;;5076163;28;20104;-73
2023/01/10 01:41:02;;;;;;;22.50;3.28;;;;;;;;;;5065444;28;20033;-73
2023/01/10 01:43:33;;;;;;;17.80;3.60;;;;;;;;;;5075727;28;20089;-74
2023/01/10 01:46:00;;;;;;;18.63;3.70;;;;;;;;;;5078142;28;20377;-74
2023/01/10 01:48:29;;;;;;;20.45;3.65;;;;;;;;;;5064525;28;20028;-73
2023/01/10 01:51:07;;;;;;;17.92;2.67;;;;;;;;;;5047467;28;20186;-73
2023/01/10 01:53:43;;;;;;;19.67;3.03;;;;;;;;;;5072953;28;20037;-72
2023/01/10 01:56:12;;;;;;;26.20;3.05;;;;;;;;;;5069742;28;20342;-73
2023/01/10 01:58:46;;;;;;;17.17;3.80;;;;;;;;;;5069855;28;20036;-73
2023/01/10 02:01:13;;;;;;;23.17;4.55;;;;;;;;;;5063465;28;20021;-73
2023/01/10 02:03:39;;;;;;;20.95;4.28;;;;;;;;;;5070159;28;20031;-73
2023/01/10 02:06:06;;;;;;;22.60;3.67;;;;;;;;;;5055071;28;20033;-73
2023/01/10 02:08:32;;;;;;;22.35;3.38;;;;;;;;;;5073836;28;20473;-74
2023/01/10 02:11:04;;;;;;;27.67;3.72;;;;;;;;;;5064614;28;20032;-76
2023/01/10 02:13:33;;;;;;;23.60;4.40;;;;;;;;;;5071186;28;20086;-73
2023/01/10 02:16:00;;;;;;;26.33;5.50;;;;;;;;;;5073941;28;20028;-73
2023/01/10 02:18:26;;;;;;;22.70;3.03;;;;;;;;;;5063156;28;20028;-73
2023/01/10 02:21:01;;;;;;;20.65;2.67;;;;;;;;;;5065255;28;20162;-73
2023/01/10 02:23:42;;;;;;;21.35;3.45;;;;;;;;;;5068811;28;20078;-72
2023/01/10 02:26:20;;;;;;;33.90;4.10;;;;;;;;;;5067353;28;20036;-73
2023/01/10 02:28:46;;;;;;;26.08;3.50;;;;;;;;;;5074146;28;20063;-73
2023/01/10 02:31:15;;;;;;;14.70;2.53;;;;;;;;;;5061845;28;20060;-73
2023/01/10 02:34:01;;;;;;;14.07;3.20;;;;;;;;;;5058330;28;20033;-72
2023/01/10 02:36:33;;;;;;;22.70;3.55;;;;;;;;;;5042420;28;20052;-73
2023/01/10 02:39:02;;;;;;;20.60;2.72;;;;;;;;;;5065756;28;20043;-73
2023/01/10 02:41:35;;;;;;;24.05;2.95;;;;;;;;;;5060113;28;20148;-73
2023/01/10 02:44:00;;;;;;;;;;;;;;;;;;5066382;28;20464;-73
2023/01/10 02:46:28;;;;;;;26.67;4.32;;;;;;;;;;5065527;28;19915;-75
2023/01/10 02:48:55;;;;;;;23.95;4.10;;;;;;;;;;5070389;28;20361;-73
2023/01/10 02:51:21;;;;;;;27.90;3.80;;;;;;;;;;5073898;28;20401;-74
2023/01/10 02:53:56;;;;;;;23.67;4.88;;;;;;;;;;5067366;28;20082;-74
2023/01/10 02:56:54;;;;;;;27.25;3.42;;;;;;;;;;5068396;28;20036;-73
2023/01/10 02:59:32;;;;;;;19.35;3.10;;;;;;;;;;5023797;28;20045;-73
2023/01/10 03:01:58;;;;;;;23.83;2.83;;;;;;;;;;5066186;28;20036;-74
2023/01/10 03:04:36;;;;;;;21.98;4.18;;;;;;;;;;5068680;28;20033;-75
2023/01/10 03:07:02;;;;;;;22.48;2.63;;;;;;;;;;5071956;28;20045;-75
2023/01/10 03:09:28;;;;;;;24.25;3.63;;;;;;;;;;5053687;28;20027;-73
2023/01/10 03:11:58;;;;;;;22.58;2.70;;;;;;;;;;5074866;28;20024;-73
2023/01/10 03:14:26;;;;;;;23.55;3.58;;;;;;;;;;5061835;28;20499;-72
2023/01/10 03:16:54;;;;;;;24.95;4.72;;;;;;;;;;5065089;28;20053;-73
2023/01/10 03:19:22;;;;;;;25.90;5.45;;;;;;;;;;5063362;28;20040;-72
2023/01/10 03:21:51;;;;;;;23.25;3.08;;;;;;;;;;5053849;28;20168;-72
2023/01/10 03:24:19;;;;;;;18.75;2.90;;;;;;;;;;5070118;28;20075;-72
2023/01/10 03:26:51;;;;;;;23.70;4.10;;;;;;;;;;5066010;28;20419;-72
2023/01/10 03:29:41;;;;;;;27.60;3.28;;;;;;;;;;5066715;28;20040;-71
2023/01/10 03:32:09;;;;;;;20.95;2.72;;;;;;;;;;5034123;28;20051;-71
2023/01/10 03:34:35;;;;;;;21.75;3.40;;;;;;;;;;5073888;28;20035;-72
2023/01/10 03:37:01;;;;;;;27.20;3.60;;;;;;;;;;5051772;28;20563;-72
2023/01/10 03:39:27;;;;;;;28.58;4.35;;;;;;;;;;5068287;28;20028;-72
2023/01/10 03:42:02;;;;;;;20.13;3.17;;;;;;;;;;5070277;28;20380;-72
2023/01/10 03:44:46;;;;;;;28.77;3.53;;;;;;;;;;5067594;28;20024;-72
2023/01/10 03:47:15;;;;;;;58.28;5.10;;;;;;;;;;5062721;28;20029;-72
2023/01/10 03:49:42;;;;;;;33.42;3.92;;;;;;;;;;5067670;28;20031;-74
2023/01/10 03:52:10;;;;;;;37.17;4.78;;;;;;;;;;5059830;28;20029;-72
2023/01/10 03:54:36;;;;;;;28.98;4.85;;;;;;;;;;5069002;28;20033;-72
2023/01/10 03:57:02;;;;;;;26.20;5.00;;;;;;;;;;5048734;28;20401;-73
2023/01/10 03:59:28;;;;;;;19.45;3.55;;;;;;;;;;5065221;28;20032;-72
2023/01/10 04:01:55;;;;;;;30.05;4.47;;;;;;;;;;5066245;28;20032;-75
2023/01/10 04:04:21;;;;;;;25.85;3.42;;;;;;;;;;5073648;28;20044;-73
2023/01/10 04:06:47;;;;;;;28.85;4.65;;;;;;;;;;5064589;28;20089;-73
2023/01/10 04:09:13;;;;;;;33.47;5.35;;;;;;;;;;5069583;28;20043;-73
2023/01/10 04:11:39;;;;;;;31.15;3.22;;;;;;;;;;5062994;28;20036;-72
2023/01/10 04:14:05;;;;;;;29.67;4.15;;;;;;;;;;5072668;28;20163;-73
2023/01/10 04:16:31;;;;;;;29.60;5.63;;;;;;;;;;5072534;28;20678;-73
2023/01/10 04:18:57;;;;;;;31.27;3.75;;;;;;;;;;5051790;28;20039;-73
2023/01/10 04:21:23;;;;;;;22.83;3.60;;;;;;;;;;5062923;28;20040;-72
2023/01/10 04:23:49;;;;;;;20.42;3.38;;;;;;;;;;5072621;28;20032;-72
2023/01/10 04:26:15;;;;;;;24.40;3.40;;;;;;;;;;5069956;28;20102;-72
2023/01/10 04:28:42;;;;;;;34.45;4.35;;;;;;;;;;5063903;28;20397;-72
2023/01/10 04:31:08;;;;;;;29.80;3.13;;;;;;;;;;5067155;28;20040;-72
2023/01/10 04:33:34;;;;;;;17.35;4.32;;;;;;;;;;5053855;28;20037;-72
2023/01/10 04:36:00;;;;;;;32.08;4.75;;;;;;;;;;5052176;28;20107;-71
2023/01/10 04:38:26;;;;;;;25.48;3.78;;;;;;;;;;5072580;28;20047;-72
2023/01/10 04:40:53;;;;;;;29.58;4.18;;;;;;;;;;5069313;28;20042;-71
2023/01/10 04:43:19;;;;;;;25.10;3.35;;;;;;;;;;5060682;28;20043;-71
2023/01/10 04:45:45;;;;;;;29.67;4.47;;;;;;;;;;5049042;28;20025;-72
2023/01/10 04:48:11;;;;;;;23.27;3.28;;;;;;;;;;5071216;28;20116;-71
2023/01/10 04:50:37;;;;;;;27.10;3.97;;;;;;;;;;5065007;28;20350;-71
2023/01/10 04:53:03;;;;;;;22.75;2.70;;;;;;;;;;5066235;28;20048;-72
2023/01/10 04:55:29;;;;;;;20.95;3.45;;;;;;;;;;5073272;28;20035;-71
2023/01/10 04:57:55;;;;;;;15.18;2.80;;;;;;;;;;5048651;28;20082;-72
2023/01/10 05:00:21;;;;;;;21.77;3.78;;;;;;;;;;5050049;28;20106;-72
2023/01/10 05:02:47;;;;;;;24.50;3.15;;;;;;;;;;5073052;28;20045;-72
2023/01/10 05:05:13;;;;;;;20.23;3.58;;;;;;;;;;5071036;28;20052;-72
2023/01/10 05:07:39;;;;;;;21.05;3.08;;;;;;;;;;5065081;28;20045;-72
2023/01/10 05:10:06;;;;;;;11.10;2.28;;;;;;;;;;5059926;28;20053;-74
2023/01/10 05:12:32;;;;;;;17.30;2.35;;;;;;;;;;5060811;28;20044;-74
2023/01/10 05:14:58;;;;;;;12.63;3.25;;;;;;;;;;5051456;28;20032;-75
2023/01/10 05:17:24;;;;;;;10.48;2.13;;;;;;;;;;5065348;28;20032;-75
2023/01/10 05:19:51;;;;;;;20.10;3.20;;;;;;;;;;5068970;28;20039;-75
2023/01/10 05:22:16;;;;;;;17.63;3.05;;;;;;;;;;5067365;28;20040;-76
2023/01/10 05:24:42;;;;;;;33.25;13.05;;;;;;;;;;5056988;28;20120;-73
2023/01/10 05:27:08;;;;;;;19.58;4.53;;;;;;;;;;5060333;28;20517;-81
2023/01/10 05:29:34;;;;;;;20.02;2.50;;;;;;;;;;5070878;28;20057;-79
2023/01/10 05:32:00;;;;;;;12.38;2.33;;;;;;;;;;5066387;28;20044;-75
2023/01/10 05:34:26;;;;;;;16.38;2.08;;;;;;;;;;5065249;28;20033;-74
2023/01/10 05:36:52;;;;;;;11.70;1.90;;;;;;;;;;5061745;28;20051;-74
2023/01/10 05:39:20;;;;;;;12.75;3.05;;;;;;;;;;5060013;28;20521;-73
2023/01/10 05:41:46;;;;;;;12.70;2.20;;;;;;;;;;5060076;28;20083;-72
2023/01/10 05:44:12;;;;;;;13.93;2.53;;;;;;;;;;5064600;28;20387;-74
2023/01/10 05:46:38;;;;;;;17.45;1.83;;;;;;;;;;5062308;28;20032;-75
2023/01/10 05:49:04;;;;;;;16.08;1.70;;;;;;;;;;5064441;28;20031;-75
2023/01/10 05:51:30;;;;;;;9.63;1.88;;;;;;;;;;5063482;28;20029;-75
2023/01/10 05:53:57;;;;;;;13.45;1.90;;;;;;;;;;5067585;28;20036;-75
2023/01/10 05:56:23;;;;;;;12.52;2.50;;;;;;;;;;5068303;28;20040;-75
2023/01/10 05:58:49;;;;;;;18.73;3.22;;;;;;;;;;5063028;28;20032;-75
2023/01/10 06:01:15;;;;;;;21.98;4.32;;;;;;;;;;5065183;28;20039;-75
2023/01/10 06:03:42;;;;;;;14.02;3.88;;;;;;;;;;5068525;28;20322;-75
2023/01/10 06:06:08;;;;;;;22.80;3.33;;;;;;;;;;5067243;28;20465;-75
2023/01/10 06:08:35;;;;;;;18.42;5.45;;;;;;;;;;5071589;28;20116;-75
2023/01/10 06:11:02;;;;;;;20.70;3.70;;;;;;;;;;5072906;28;20480;-75
2023/01/10 06:13:28;;;;;;;22.02;4.13;;;;;;;;;;5074060;28;20036;-75
2023/01/10 06:15:54;;;;;;;29.48;5.88;;;;;;;;;;5058788;28;20017;-72
2023/01/10 06:18:20;;;;;;;26.10;7.22;;;;;;;;;;5073206;28;20033;-74
2023/01/10 06:20:47;;;;;;;17.98;5.78;;;;;;;;;;5063997;28;20109;-72
2023/01/10 06:23:14;;;;;;;24.80;4.45;;;;;;;;;;5065333;28;20044;-73
2023/01/10 06:25:41;;;;;;;28.48;5.25;;;;;;;;;;5061768;28;20067;-73
2023/01/10 06:28:11;;;;;;;35.50;6.22;;;;;;;;;;5076188;28;20039;-73
2023/01/10 06:30:40;;;;;;;30.95;3.88;;;;;;;;;;5045379;28;20540;-73
2023/01/10 06:33:07;;;;;;;26.92;4.82;;;;;;;;;;5050925;28;20382;-72
2023/01/10 06:35:33;;;;;;;34.63;5.35;;;;;;;;;;5052064;28;20091;-72
2023/01/10 06:37:59;;;;;;;37.38;4.53;;;;;;;;;;5051861;28;20110;-73
2023/01/10 06:40:25;;;;;;;34.05;4.65;;;;;;;;;;5050737;28;20118;-73
2023/01/10 06:42:52;;;;;;;40.67;7.22;;;;;;;;;;5048848;28;20504;-73
2023/01/10 06:45:18;;;;;;;37.22;6.07;;;;;;;;;;5051931;28;20056;-74
2023/01/10 06:47:44;;;;;;;32.05;4.63;;;;;;;;;;5039612;28;20104;-73
2023/01/10 06:50:10;;;;;;;42.78;9.50;;;;;;;;;;5052848;28;20433;-73
2023/01/10 06:52:36;;;;;;;35.22;5.47;;;;;;;;;;5049580;28;20490;-72
2023/01/10 06:55:02;;;;;;;37.60;7.78;;;;;;;;;;5051273;28;20048;-73
2023/01/10 06:57:28;;;;;;;43.15;11.57;;;;;;;;;;5049378;28;20434;-72
2023/01/10 06:59:54;;;;;;;38.55;7.65;;;;;;;;;;5045162;28;20402;-73
2023/01/10 07:02:20;;;;;;;32.08;4.82;;;;;;;;;;5058070;28;20033;-73
2023/01/10 07:04:48;;;;;;;44.40;10.40;;;;;;;;;;5049444;28;20508;-73
2023/01/10 07:07:14;;;;;;;37.15;7.15;;;;;;;;;;5052785;28;20028;-72
2023/01/10 07:09:40;;;;;;;33.20;4.72;;;;;;;;;;5050910;28;20052;-72
2023/01/10 07:12:06;;;;;;;33.88;5.38;;;;;;;;;;5047605;28;20171;-72
2023/01/10 07:14:32;;;;;;;41.05;6.00;;;;;;;;;;5047155;28;20088;-74
2023/01/10 07:16:58;;;;;;;29.90;4.40;;;;;;;;;;5044280;28;20040;-72
2023/01/10 07:19:24;;;;;;;31.45;5.30;;;;;;;;;;5047283;28;20395;-72
2023/01/10 07:21:50;;;;;;;37.10;4.88;;;;;;;;;;5053764;28;20119;-73
2023/01/10 07:24:16;;;;;;;35.42;5.65;;;;;;;;;;5048135;28;20567;-73
2023/01/10 07:26:42;;;;;;;28.55;5.60;;;;;;;;;;5054188;28;20052;-72
2023/01/10 07:29:08;;;;;;;30.17;5.15;;;;;;;;;;5051749;28;20021;-72
2023/01/10 07:31:35;;;;;;;37.58;4.35;;;;;;;;;;5070447;28;20453;-72
2023/01/10 07:34:00;;;;;;;32.92;4.88;;;;;;;;;;5070224;28;20758;-72
2023/01/10 07:36:26;;;;;;;27.55;5.18;;;;;;;;;;5067054;28;20051;-73
2023/01/10 07:38:52;;;;;;;36.50;5.90;;;;;;;;;;5069173;28;20029;-73
2023/01/10 07:41:18;;;;;;;28.67;4.85;;;;;;;;;;5078234;28;20396;-73
2023/01/10 07:43:44;;;;;;;26.05;4.63;;;;;;;;;;5070432;28;20040;-74
2023/01/10 07:46:11;;;;;;;35.28;5.22;;;;;;;;;;5049895;28;20040;-73
2023/01/10 07:48:37;;;;;;;26.40;4.35;;;;;;;;;;5074081;28;20023;-74
2023/01/10 07:51:04;;;;;;;30.42;4.03;;;;;;;;;;5071328;28;20046;-73
2023/01/10 07:53:30;;;;;;;34.97;3.65;;;;;;;;;;5065405;28;20044;-72
2023/01/10 07:56:00;;;;;;;32.40;3.97;;;;;;;;;;5066545;28;20036;-72
2023/01/10 07:58:27;;;;;;;34.85;6.70;;;;;;;;;;5044286;28;20033;-74
2023/01/10 08:00:56;;;;;;;34.75;5.72;;;;;;;;;;5068230;28;20048;-73
2023/01/10 08:03:23;;;;;;;29.58;4.57;;;;;;;;;;5067902;28;20086;-73
2023/01/10 08:05:49;;;;;;;29.30;4.25;;;;;;;;;;5058874;28;20031;-74
2023/01/10 08:08:16;;;;;;;40.92;5.25;;;;;;;;;;5070490;28;20142;-74
2023/01/10 08:10:42;;;;;;;30.17;4.30;;;;;;;;;;5058355;28;20463;-74
2023/01/10 08:13:08;;;;;;;34.78;4.63;;;;;;;;;;5064708;28;20435;-75
2023/01/10 08:15:34;;;;;;;35.72;5.38;;;;;;;;;;5060241;28;20664;-74
2023/01/10 08:18:01;;;;;;;30.58;5.25;;;;;;;;;;5059895;28;20497;-76
2023/01/10 08:20:27;;;;;;;45.00;13.80;;;;;;;;;;5043719;28;20024;-76
2023/01/10 08:22:53;;;;;;;35.97;5.63;;;;;;;;;;5040531;28;20089;-74
2023/01/10 08:25:19;;;;;;;29.77;5.18;;;;;;;;;;5066499;28;20119;-74
2023/01/10 08:27:45;;;;;;;30.65;4.78;;;;;;;;;;5062762;28;20032;-72
2023/01/10 08:30:11;;;;;;;29.80;3.67;;;;;;;;;;5070205;28;20048;-72
2023/01/10 08:32:38;;;;;;;30.63;4.38;;;;;;;;;;5064453;28;20104;-71
2023/01/10 08:35:04;;;;;;;34.22;4.85;;;;;;;;;;5069856;28;20028;-74
2023/01/10 08:37:31;;;;;;;26.83;3.80;;;;;;;;;;5051700;28;20036;-72
2023/01/10 08:39:57;;;;;;;54.58;15.90;;;;;;;;;;5068569;28;20633;-73
2023/01/10 08:42:23;;;;;;;38.85;10.20;;;;;;;;;;5067303;28;20551;-73
2023/01/10 08:44:49;;;;;;;36.80;7.05;;;;;;;;;;5064694;28;20039;-74
2023/01/10 08:47:15;;;;;;;32.70;6.80;;;;;;;;;;5061442;28;20028;-75
2023/01/10 08:49:41;;;;;;;27.88;5.28;;;;;;;;;;5065543;28;20030;-72
2023/01/10 08:52:07;;;;;;;37.22;7.03;;;;;;;;;;5063502;28;20045;-73
2023/01/10 08:54:33;;;;;;;30.33;4.63;;;;;;;;;;5050222;28;20123;-72
2023/01/10 08:56:59;;;;;;;37.05;13.80;;;;;;;;;;5057040;28;20021;-75
2023/01/10 08:59:25;;;;;;;26.55;4.93;;;;;;;;;;5071052;28;20189;-74
2023/01/10 09:01:51;;;;;;;29.33;5.45;;;;;;;;;;5070152;28;20045;-72
2023/01/10 09:04:17;;;;;;;29.45;4.32;;;;;;;;;;5064842;28;20031;-75
2023/01/10 09:06:43;;;;;;;25.23;3.67;;;;;;;;;;5072016;28;20598;-73
2023/01/10 09:09:09;;;;;;;28.77;4.13;;;;;;;;;;5054579;28;20100;-72
2023/01/10 09:11:35;;;;;;;34.42;7.35;;;;;;;;;;5061683;28;20036;-73
2023/01/10 09:14:01;;;;;;;35.67;9.45;;;;;;;;;;5072508;28;20033;-72
2023/01/10 09:16:27;;;;;;;28.20;5.45;;;;;;;;;;5068949;28;20045;-73
2023/01/10 09:18:54;;;;;;;24.58;3.20;;;;;;;;;;5070099;28;20071;-74
2023/01/10 09:21:20;;;;;;;25.35;3.92;;;;;;;;;;5074265;28;20040;-72
2023/01/10 09:23:46;;;;;;;18.75;3.83;;;;;;;;;;5069821;28;20047;-73
2023/01/10 09:26:12;;;;;;;21.20;4.70;;;;;;;;;;5067055;28;20039;-74
2023/01/10 09:28:38;;;;;;;22.55;3.45;;;;;;;;;;5068360;28;20380;-73
2023/01/10 09:31:06;;;;;;;25.38;3.33;;;;;;;;;;5057804;28;20060;-72
2023/01/10 09:33:32;;;;;;;22.27;3.45;;;;;;;;;;5061658;28;20044;-72
2023/01/10 09:35:58;;;;;;;23.85;2.90;;;;;;;;;;5059890;28;20126;-73
2023/01/10 09:38:24;;;;;;;22.13;4.07;;;;;;;;;;5065476;28;20032;-73
2023/01/10 09:41:11;;;;;;;20.92;3.55;;;;;;;;;;5062123;28;20031;-73
2023/01/10 09:43:37;;;;;;;46.95;16.27;;;;;;;;;;5065912;28;20039;-72
2023/01/10 09:46:06;;;;;;;67.53;24.05;;;;;;;;;;5071132;28;20392;-73
2023/01/10 09:48:32;;;;;;;40.65;14.60;;;;;;;;;;5057356;28;20033;-73
2023/01/10 09:51:04;;;;;;;98.40;44.83;;;;;;;;;;5072635;28;20370;-73
2023/01/10 09:53:37;;;;;;;41.92;15.23;;;;;;;;;;5071056;28;20047;-72
2023/01/10 09:56:05;;;;;;;28.50;7.40;;;;;;;;;;5056370;28;20033;-73
2023/01/10 09:58:32;;;;;;;35.20;4.68;;;;;;;;;;5056690;28;20020;-73
2023/01/10 10:00:59;;;;;;;25.40;5.55;;;;;;;;;;5072450;28;20037;-73
2023/01/10 10:03:30;;;;;;;34.25;4.80;;;;;;;;;;5067008;28;20487;-72
2023/01/10 10:05:57;;;;;;;30.48;5.22;;;;;;;;;;5070485;28;20039;-73
2023/01/10 10:08:23;;;;;;;27.70;4.85;;;;;;;;;;5060800;28;20111;-74
2023/01/10 10:10:58;;;;;;;24.05;3.90;;;;;;;;;;5067062;28;20036;-73
2023/01/10 10:13:48;;;;;;;23.52;5.57;;;;;;;;;;5071095;28;20040;-73
2023/01/10 10:16:32;;;;;;;34.05;4.80;;;;;;;;;;5055253;28;20028;-71
2023/01/10 10:19:01;;;;;;;30.85;4.15;;;;;;;;;;5054824;28;20119;-72
2023/01/10 10:21:46;;;;;;;41.15;6.13;;;;;;;;;;5072915;28;20120;-72
2023/01/10 10:24:31;;;;;;;32.97;4.70;;;;;;;;;;5052968;28;20427;-73
2023/01/10 10:26:58;;;;;;;28.02;5.20;;;;;;;;;;5072740;28;20107;-73
2023/01/10 10:29:33;;;;;;;24.15;4.63;;;;;;;;;;5068612;28;20051;-73
2023/01/10 10:32:18;;;;;;;28.73;4.30;;;;;;;;;;5069776;28;20024;-74
2023/01/10 10:34:44;;;;;;;24.00;4.60;;;;;;;;;;5070944;28;20512;-73
2023/01/10 10:37:19;;;;;;;25.45;4.90;;;;;;;;;;5071997;28;20104;-74
2023/01/10 10:40:00;;;;;;;26.95;5.00;;;;;;;;;;5070327;28;20475;-76
2023/01/10 10:42:31;;;;;;;25.67;5.35;;;;;;;;;;5061815;28;20028;-75
2023/01/10 10:44:58;;;;;;;36.58;6.80;;;;;;;;;;5062439;28;20488;-73
2023/01/10 10:47:27;;;;;;;43.65;8.68;;;;;;;;;;5061555;28;20036;-73
2023/01/10 10:49:56;;;;;;;42.42;8.88;;;;;;;;;;5057815;28;20031;-74
2023/01/10 10:52:22;;;;;;;34.22;7.30;;;;;;;;;;5056601;28;20040;-74
2023/01/10 10:54:48;;;;;;;35.63;6.40;;;;;;;;;;5062212;28;20057;-72
2023/01/10 10:57:14;;;;;;;32.55;6.75;;;;;;;;;;5046743;28;20045;-73
2023/01/10 10:59:42;;;;;;;41.90;6.38;;;;;;;;;;5064705;28;20040;-74
2023/01/10 11:02:23;;;;;;;31.95;6.35;;;;;;;;;;5062364;28;20033;-72
2023/01/10 11:04:50;;;;;;;35.17;7.43;;;;;;;;;;5057397;28;20021;-73
2023/01/10 11:07:17;;;;;;;36.22;9.25;;;;;;;;;;5053393;28;20100;-73
2023/01/10 11:12:19;;;;;;;32.28;6.28;;;;;;;;;;5064192;28;20237;-73
2023/01/10 11:14:47;;;;;;;42.85;7.75;;;;;;;;;;5064537;28;20091;-73
2023/01/10 11:17:22;;;;;;;32.50;6.95;;;;;;;;;;5068641;28;20089;-75
2023/01/10 11:20:15;;;;;;;31.95;6.35;;;;;;;;;;5059843;28;20032;-72
2023/01/10 11:22:46;;;;;;;38.88;7.55;;;;;;;;;;5067191;28;20049;-72
2023/01/10 11:25:14;;;;;;;29.08;7.43;;;;;;;;;;5052108;28;20056;-73
2023/01/10 11:27:46;;;;;;;31.90;6.47;;;;;;;;;;5066559;28;20027;-74
2023/01/10 11:30:18;;;;;;;31.00;8.13;;;;;;;;;;5048593;28;20053;-73
2023/01/10 11:32:55;;;;;;;38.78;7.85;;;;;;;;;;5043434;28;20473;-73
2023/01/10 11:35:35;;;;;;;41.00;12.38;;;;;;;;;;5030739;28;20034;-74
2023/01/10 11:38:20;;;;;;;63.85;18.65;;;;;;;;;;5047999;28;20065;-73
2023/01/10 11:40:53;;;;;;;69.90;22.35;;;;;;;;;;5045636;28;20500;-74
2023/01/10 11:43:27;;;;;;;86.60;28.83;;;;;;;;;;5063900;28;20033;-72
2023/01/10 11:45:55;;;;;;;93.40;33.45;;;;;;;;;;5051210;28;20031;-72
2023/01/10 11:48:23;;;;;;;48.72;11.30;;;;;;;;;;5045305;28;20604;-74
2023/01/10 11:50:50;;;;;;;27.67;7.57;;;;;;;;;;5047911;28;20072;-73
2023/01/10 11:53:35;;;;;;;40.38;7.95;;;;;;;;;;5044904;28;20044;-72
2023/01/10 11:56:02;;;;;;;26.67;6.95;;;;;;;;;;5045763;28;20060;-74
2023/01/10 11:58:32;;;;;;;29.58;6.57;;;;;;;;;;5043459;28;20451;-74
2023/01/10 12:00:58;;;;;;;38.15;7.85;;;;;;;;;;5038146;28;20096;-73
2023/01/10 12:03:28;;;;;;;27.45;6.55;;;;;;;;;;5046730;28;20069;-74
2023/01/10 12:05:58;;;;;;;35.85;7.93;;;;;;;;;;5050250;28;20033;-73
2023/01/10 12:08:26;;;;;;;40.70;8.32;;;;;;;;;;5044770;28;20057;-73
2023/01/10 12:11:03;;;;;;;34.83;7.13;;;;;;;;;;5031204;28;20025;-73
2023/01/10 12:13:30;;;;;;;38.80;10.10;;;;;;;;;;5040938;28;20045;-73
2023/01/10 12:16:14;;;;;;;36.85;8.65;;;;;;;;;;5040034;28;20025;-73
2023/01/10 12:18:40;;;;;;;37.95;8.60;;;;;;;;;;5041103;28;20063;-73
2023/01/10 12:21:07;;;;;;;37.75;7.50;;;;;;;;;;5048029;28;20340;-73
2023/01/10 12:23:39;;;;;;;35.53;6.03;;;;;;;;;;5045087;28;20033;-73
2023/01/10 12:26:06;;;;;;;39.97;7.25;;;;;;;;;;5050700;28;20083;-74
2023/01/10 12:28:32;;;;;;;27.92;7.22;;;;;;;;;;5049976;28;20111;-74
2023/01/10 12:30:59;;;;;;;35.28;6.60;;;;;;;;;;5061358;28;20056;-73
2023/01/10 12:33:33;;;;;;;43.67;7.28;;;;;;;;;;5066234;28;20055;-73
2023/01/10 12:36:09;;;;;;;45.88;8.25;;;;;;;;;;5065300;28;20056;-77
2023/01/10 12:44:15;;;;;;;35.63;7.35;;;;;;;;;;5056969;28;20039;-73
2023/01/10 12:46:41;;;;;;;33.95;7.00;;;;;;;;;;5062990;28;20221;-74
2023/01/10 12:49:12;;;;;;;32.42;7.90;;;;;;;;;;5065562;28;20389;-72
2023/01/10 12:51:38;;;;;;;41.42;6.50;;;;;;;;;;5059073;28;20029;-75
2023/01/10 12:54:11;;;;;;;34.95;7.65;;;;;;;;;;5062954;28;20033;-73
2023/01/10 12:56:38;;;;;;;38.58;6.70;;;;;;;;;;5067849;28;20040;-74
2023/01/10 12:59:05;;;;;;;38.35;8.07;;;;;;;;;;5062488;28;20032;-73
2023/01/10 13:01:33;;;;;;;29.05;6.72;;;;;;;;;;5044994;28;20461;-73
2023/01/10 13:04:03;;;;;;;30.63;7.00;;;;;;;;;;5063741;28;20025;-74
2023/01/10 13:06:40;;;;;;;29.65;5.47;;;;;;;;;;5050466;28;20154;-74
2023/01/10 13:09:13;;;;;;;23.10;6.07;;;;;;;;;;5062236;28;20465;-73
2023/01/10 13:11:41;;;;;;;35.20;8.55;;;;;;;;;;5068080;28;20059;-74
2023/01/10 13:14:11;;;;;;;36.50;6.40;;;;;;;;;;5058996;28;20033;-73
2023/01/10 13:16:43;;;;;;;42.55;6.70;;;;;;;;;;5042581;28;20350;-74
2023/01/10 13:19:09;;;;;;;41.97;5.85;;;;;;;;;;5065825;28;20580;-74
2023/01/10 13:21:36;;;;;;;32.20;7.03;;;;;;;;;;5055497;28;20108;-73
2023/01/10 13:24:14;;;;;;;33.90;5.97;;;;;;;;;;5065996;28;20120;-74
2023/01/10 13:26:55;;;;;;;36.95;6.45;;;;;;;;;;5066181;28;20057;-73
2023/01/10 13:29:25;;;;;;;36.17;7.70;;;;;;;;;;5064002;28;20040;-73
2023/01/10 13:31:58;;;;;;;35.03;5.75;;;;;;;;;;5066199;28;20032;-74
2023/01/10 13:34:26;;;;;;;29.48;6.07;;;;;;;;;;5065429;28;20488;-75
2023/01/10 13:36:59;;;;;;;32.28;6.28;;;;;;;;;;5067008;28;20526;-73
2023/01/10 13:39:34;;;;;;;24.17;5.93;;;;;;;;;;5057974;28;20162;-74
2023/01/10 13:45:00;;;;;;;21.90;5.10;;;;;;;;;;5064435;28;20036;-73
2023/01/10 13:47:38;;;;;;;35.90;7.15;;;;;;;;;;5059716;28;20098;-75
2023/01/10 13:50:32;;;;;;;32.47;5.28;;;;;;;;;;5064922;28;20058;-73
2023/01/10 13:53:01;;;;;;;39.47;6.07;;;;;;;;;;5064758;28;20116;-73
2023/01/10 13:55:33;;;;;;;20.90;5.43;;;;;;;;;;5067216;28;20404;-74
2023/01/10 13:58:02;;;;;;;41.03;5.53;;;;;;;;;;5063263;28;20111;-74
2023/01/10 14:03:49;;;;;;;29.20;5.95;;;;;;;;;;5063484;28;20071;-73
2023/01/10 14:06:31;;;;;;;34.92;4.85;;;;;;;;;;5070668;28;20043;-74
2023/01/10 14:09:20;;;;;;;24.30;5.75;;;;;;;;;;5066643;28;20386;-74
2023/01/10 14:11:51;;;;;;;24.65;5.85;;;;;;;;;;5060500;28;20106;-74
2023/01/10 14:14:20;;;;;;;34.03;6.00;;;;;;;;;;5063688;28;20139;-75
2023/01/10 14:16:49;;;;;;;27.83;4.80;;;;;;;;;;5048410;28;20025;-75
2023/01/10 14:19:27;;;;;;;24.70;4.53;;;;;;;;;;5064813;28;20030;-74
2023/01/10 14:21:54;;;;;;;37.85;12.40;;;;;;;;;;5060250;28;20037;-76
2023/01/10 14:24:28;;;;;;;29.58;5.03;;;;;;;;;;5067296;28;20119;-76
2023/01/10 14:26:55;;;;;;;29.13;5.30;;;;;;;;;;5068864;28;20082;-75
2023/01/10 14:29:22;;;;;;;32.08;5.07;;;;;;;;;;5058292;28;20106;-75
2023/01/10 14:31:51;;;;;;;27.83;5.25;;;;;;;;;;5067719;28;20126;-76
2023/01/10 14:34:31;;;;;;;20.42;4.47;;;;;;;;;;5069926;28;20028;-74
2023/01/10 14:37:01;;;;;;;24.92;5.07;;;;;;;;;;5060346;28;20065;-76
2023/01/10 14:39:28;;;;;;;32.13;6.38;;;;;;;;;;5054611;28;20040;-74
2023/01/10 14:42:02;;;;;;;37.88;7.88;;;;;;;;;;5057775;28;20036;-72
2023/01/10 14:44:35;;;;;;;44.90;12.93;;;;;;;;;;5064604;28;20020;-74
2023/01/10 14:47:04;;;;;;;22.27;3.88;;;;;;;;;;5038539;28;20078;-75
2023/01/10 14:49:34;;;;;;;27.73;4.70;;;;;;;;;;5064787;28;20032;-74
2023/01/10 14:52:15;;;;;;;25.75;5.88;;;;;;;;;;5054379;28;20025;-74
2023/01/10 14:54:42;;;;;;;32.40;6.15;;;;;;;;;;5055318;28;20025;-74
2023/01/10 14:57:18;;;;;;;23.65;5.43;;;;;;;;;;5025373;28;20074;-75